sensor_id;sensor_type;location;lat;lon;timestamp;P1;durP1;ratioP1;P2;durP2;ratioP2
61956;SDS011;47916;45.544;10.166;2022-08-19T00:00:08;4.38;;;2.40;;
61956;SDS011;47916;45.544;10.166;2022-08-19T00:00:21;4.57;;;2.50;;
61956;SDS011;47916;45.544;10.166;2022-08-19T00:00:34;4.65;;;2.70;;
61956;SDS011;47916;45.544;10.166;2022-08-19T00:00:46;4.40;;;2.60;;
61956;SDS011;47916;45.544;10.166;2022-08-19T00:00:58;3.63;;;2.45;;
61956;SDS011;47916;45.544;10.166;2022-08-19T00:01:09;4.68;;;2.70;;
61956;SDS011;47916;45.544;10.166;2022-08-19T00:01:21;4.97;;;2.67;;
61956;SDS011;47916;45.544;10.166;2022-08-19T00:01:41;5.97;;;2.42;;
61956;SDS011;47916;45.544;10.166;2022-08-19T00:02:02;6.25;;;2.58;;
61956;SDS011;47916;45.544;10.166;2022-08-19T00:02:14;6.73;;;3.00;;
61956;SDS011;47916;45.544;10.166;2022-08-19T00:02:25;6.75;;;2.92;;
61956;SDS011;47916;45.544;10.166;2022-08-19T00:02:37;6.28;;;2.75;;
61956;SDS011;47916;45.544;10.166;2022-08-19T00:03:00;9.00;;;2.95;;
61956;SDS011;47916;45.544;10.166;2022-08-19T00:03:11;10.07;;;2.83;;
61956;SDS011;47916;45.544;10.166;2022-08-19T00:03:23;8.27;;;2.78;;
61956;SDS011;47916;45.544;10.166;2022-08-19T00:03:34;6.20;;;2.80;;
61956;SDS011;47916;45.544;10.166;2022-08-19T00:03:45;7.18;;;3.20;;
61956;SDS011;47916;45.544;10.166;2022-08-19T00:03:58;8.15;;;3.25;;
61956;SDS011;47916;45.544;10.166;2022-08-19T00:04:11;6.03;;;3.03;;
61956;SDS011;47916;45.544;10.166;2022-08-19T00:04:27;6.60;;;3.08;;
61956;SDS011;47916;45.544;10.166;2022-08-19T00:04:41;6.30;;;2.97;;
61956;SDS011;47916;45.544;10.166;2022-08-19T00:04:52;3.95;;;2.72;;
61956;SDS011;47916;45.544;10.166;2022-08-19T00:05:04;4.25;;;2.80;;
61956;SDS011;47916;45.544;10.166;2022-08-19T00:05:16;5.30;;;2.70;;
61956;SDS011;47916;45.544;10.166;2022-08-19T00:05:28;5.63;;;2.70;;
61956;SDS011;47916;45.544;10.166;2022-08-19T00:05:40;5.20;;;2.90;;
61956;SDS011;47916;45.544;10.166;2022-08-19T00:05:51;4.28;;;2.70;;
61956;SDS011;47916;45.544;10.166;2022-08-19T00:06:03;5.30;;;2.90;;
61956;SDS011;47916;45.544;10.166;2022-08-19T00:06:15;5.82;;;2.80;;
61956;SDS011;47916;45.544;10.166;2022-08-19T00:06:30;6.72;;;2.80;;
61956;SDS011;47916;45.544;10.166;2022-08-19T00:06:43;6.38;;;2.67;;
61956;SDS011;47916;45.544;10.166;2022-08-19T00:06:55;7.07;;;2.72;;
61956;SDS011;47916;45.544;10.166;2022-08-19T00:07:07;8.20;;;2.95;;
61956;SDS011;47916;45.544;10.166;2022-08-19T00:07:19;7.78;;;2.88;;
61956;SDS011;47916;45.544;10.166;2022-08-19T00:07:30;7.97;;;2.95;;
61956;SDS011;47916;45.544;10.166;2022-08-19T00:07:42;5.75;;;3.10;;
61956;SDS011;47916;45.544;10.166;2022-08-19T00:07:54;6.30;;;3.42;;
61956;SDS011;47916;45.544;10.166;2022-08-19T00:08:05;6.70;;;3.35;;
61956;SDS011;47916;45.544;10.166;2022-08-19T00:08:17;7.28;;;3.33;;
61956;SDS011;47916;45.544;10.166;2022-08-19T00:08:28;7.45;;;2.92;;
61956;SDS011;47916;45.544;10.166;2022-08-19T00:08:40;7.45;;;2.97;;
61956;SDS011;47916;45.544;10.166;2022-08-19T00:08:53;8.00;;;2.90;;
61956;SDS011;47916;45.544;10.166;2022-08-19T00:09:05;9.63;;;3.10;;
61956;SDS011;47916;45.544;10.166;2022-08-19T00:09:19;8.43;;;3.40;;
61956;SDS011;47916;45.544;10.166;2022-08-19T00:09:32;6.00;;;3.20;;
61956;SDS011;47916;45.544;10.166;2022-08-19T00:09:43;7.20;;;3.00;;
61956;SDS011;47916;45.544;10.166;2022-08-19T00:09:55;8.20;;;3.40;;
61956;SDS011;47916;45.544;10.166;2022-08-19T00:10:11;5.90;;;3.13;;
61956;SDS011;47916;45.544;10.166;2022-08-19T00:10:24;5.57;;;2.95;;
61956;SDS011;47916;45.544;10.166;2022-08-19T00:10:36;7.00;;;2.95;;
61956;SDS011;47916;45.544;10.166;2022-08-19T00:10:47;7.03;;;3.30;;
61956;SDS011;47916;45.544;10.166;2022-08-19T00:10:58;4.32;;;3.15;;
61956;SDS011;47916;45.544;10.166;2022-08-19T00:11:10;6.43;;;3.30;;
61956;SDS011;47916;45.544;10.166;2022-08-19T00:11:28;6.82;;;2.85;;
61956;SDS011;47916;45.544;10.166;2022-08-19T00:11:40;4.63;;;2.63;;
61956;SDS011;47916;45.544;10.166;2022-08-19T00:11:53;5.25;;;2.83;;
61956;SDS011;47916;45.544;10.166;2022-08-19T00:12:05;9.18;;;3.35;;
61956;SDS011;47916;45.544;10.166;2022-08-19T00:12:17;9.80;;;3.65;;
61956;SDS011;47916;45.544;10.166;2022-08-19T00:12:28;8.88;;;3.58;;
61956;SDS011;47916;45.544;10.166;2022-08-19T00:12:40;6.78;;;3.00;;
61956;SDS011;47916;45.544;10.166;2022-08-19T00:12:57;7.72;;;2.75;;
61956;SDS011;47916;45.544;10.166;2022-08-19T00:13:08;5.88;;;2.67;;
61956;SDS011;47916;45.544;10.166;2022-08-19T00:13:20;4.57;;;2.95;;
61956;SDS011;47916;45.544;10.166;2022-08-19T00:13:31;5.28;;;2.95;;
61956;SDS011;47916;45.544;10.166;2022-08-19T00:13:43;5.88;;;3.00;;
61956;SDS011;47916;45.544;10.166;2022-08-19T00:13:55;5.03;;;2.95;;
61956;SDS011;47916;45.544;10.166;2022-08-19T00:14:07;4.70;;;3.13;;
61956;SDS011;47916;45.544;10.166;2022-08-19T00:14:20;4.95;;;3.15;;
61956;SDS011;47916;45.544;10.166;2022-08-19T00:14:32;3.92;;;2.92;;
61956;SDS011;47916;45.544;10.166;2022-08-19T00:14:43;5.45;;;3.08;;
61956;SDS011;47916;45.544;10.166;2022-08-19T00:14:55;6.45;;;3.50;;
61956;SDS011;47916;45.544;10.166;2022-08-19T00:15:08;6.68;;;3.70;;
61956;SDS011;47916;45.544;10.166;2022-08-19T00:15:23;4.70;;;3.17;;
61956;SDS011;47916;45.544;10.166;2022-08-19T00:15:34;6.57;;;3.45;;
61956;SDS011;47916;45.544;10.166;2022-08-19T00:15:46;7.57;;;3.55;;
61956;SDS011;47916;45.544;10.166;2022-08-19T00:15:57;6.43;;;3.42;;
61956;SDS011;47916;45.544;10.166;2022-08-19T00:16:08;5.82;;;3.25;;
61956;SDS011;47916;45.544;10.166;2022-08-19T00:16:20;5.05;;;3.03;;
61956;SDS011;47916;45.544;10.166;2022-08-19T00:16:37;5.43;;;2.72;;
61956;SDS011;47916;45.544;10.166;2022-08-19T00:16:50;6.47;;;3.00;;
61956;SDS011;47916;45.544;10.166;2022-08-19T00:17:02;6.70;;;3.20;;
61956;SDS011;47916;45.544;10.166;2022-08-19T00:17:14;7.73;;;3.17;;
61956;SDS011;47916;45.544;10.166;2022-08-19T00:17:25;7.38;;;3.13;;
61956;SDS011;47916;45.544;10.166;2022-08-19T00:17:40;7.13;;;3.45;;
61956;SDS011;47916;45.544;10.166;2022-08-19T00:17:54;7.10;;;3.50;;
61956;SDS011;47916;45.544;10.166;2022-08-19T00:18:05;5.00;;;3.22;;
61956;SDS011;47916;45.544;10.166;2022-08-19T00:18:17;5.20;;;3.05;;
61956;SDS011;47916;45.544;10.166;2022-08-19T00:18:28;4.72;;;2.88;;
61956;SDS011;47916;45.544;10.166;2022-08-19T00:18:40;5.25;;;2.95;;
61956;SDS011;47916;45.544;10.166;2022-08-19T00:18:51;4.75;;;3.00;;
61956;SDS011;47916;45.544;10.166;2022-08-19T00:19:03;5.25;;;3.10;;
61956;SDS011;47916;45.544;10.166;2022-08-19T00:19:15;6.00;;;3.25;;
61956;SDS011;47916;45.544;10.166;2022-08-19T00:19:27;7.40;;;3.38;;
61956;SDS011;47916;45.544;10.166;2022-08-19T00:19:39;9.32;;;3.58;;
61956;SDS011;47916;45.544;10.166;2022-08-19T00:19:51;7.72;;;3.30;;
61956;SDS011;47916;45.544;10.166;2022-08-19T00:20:02;8.02;;;3.40;;
61956;SDS011;47916;45.544;10.166;2022-08-19T00:20:16;6.40;;;3.90;;
61956;SDS011;47916;45.544;10.166;2022-08-19T00:20:29;5.63;;;4.05;;
61956;SDS011;47916;45.544;10.166;2022-08-19T00:20:41;5.57;;;3.72;;
61956;SDS011;47916;45.544;10.166;2022-08-19T00:20:52;6.35;;;3.80;;
61956;SDS011;47916;45.544;10.166;2022-08-19T00:21:04;8.02;;;4.13;;
61956;SDS011;47916;45.544;10.166;2022-08-19T00:21:18;7.72;;;4.10;;
61956;SDS011;47916;45.544;10.166;2022-08-19T00:21:29;7.13;;;4.10;;
61956;SDS011;47916;45.544;10.166;2022-08-19T00:21:41;7.13;;;4.20;;
61956;SDS011;47916;45.544;10.166;2022-08-19T00:21:53;7.93;;;4.30;;
61956;SDS011;47916;45.544;10.166;2022-08-19T00:22:04;7.65;;;4.00;;
61956;SDS011;47916;45.544;10.166;2022-08-19T00:22:16;9.55;;;3.75;;
61956;SDS011;47916;45.544;10.166;2022-08-19T00:22:29;8.45;;;3.55;;
61956;SDS011;47916;45.544;10.166;2022-08-19T00:22:40;8.18;;;3.58;;
61956;SDS011;47916;45.544;10.166;2022-08-19T00:22:52;7.18;;;3.67;;
61956;SDS011;47916;45.544;10.166;2022-08-19T00:23:03;7.70;;;3.90;;
61956;SDS011;47916;45.544;10.166;2022-08-19T00:23:15;8.18;;;3.83;;
61956;SDS011;47916;45.544;10.166;2022-08-19T00:23:26;9.13;;;3.70;;
61956;SDS011;47916;45.544;10.166;2022-08-19T00:23:38;8.38;;;3.40;;
61956;SDS011;47916;45.544;10.166;2022-08-19T00:23:49;7.38;;;3.45;;
61956;SDS011;47916;45.544;10.166;2022-08-19T00:24:01;5.85;;;3.47;;
61956;SDS011;47916;45.544;10.166;2022-08-19T00:24:13;5.68;;;3.42;;
61956;SDS011;47916;45.544;10.166;2022-08-19T00:24:25;8.55;;;3.45;;
61956;SDS011;47916;45.544;10.166;2022-08-19T00:24:37;10.30;;;3.58;;
61956;SDS011;47916;45.544;10.166;2022-08-19T00:24:49;11.07;;;3.72;;
61956;SDS011;47916;45.544;10.166;2022-08-19T00:25:01;7.88;;;3.72;;
61956;SDS011;47916;45.544;10.166;2022-08-19T00:25:14;7.72;;;3.80;;
61956;SDS011;47916;45.544;10.166;2022-08-19T00:25:27;6.55;;;3.70;;
61956;SDS011;47916;45.544;10.166;2022-08-19T00:25:40;5.95;;;3.63;;
61956;SDS011;47916;45.544;10.166;2022-08-19T00:25:52;7.43;;;3.72;;
61956;SDS011;47916;45.544;10.166;2022-08-19T00:26:04;8.15;;;3.97;;
61956;SDS011;47916;45.544;10.166;2022-08-19T00:26:17;9.90;;;4.03;;
61956;SDS011;47916;45.544;10.166;2022-08-19T00:26:28;9.18;;;3.70;;
61956;SDS011;47916;45.544;10.166;2022-08-19T00:26:40;7.45;;;3.13;;
61956;SDS011;47916;45.544;10.166;2022-08-19T00:26:53;7.13;;;3.22;;
61956;SDS011;47916;45.544;10.166;2022-08-19T00:27:04;7.28;;;3.50;;
61956;SDS011;47916;45.544;10.166;2022-08-19T00:27:36;6.80;;;4.07;;
61956;SDS011;47916;45.544;10.166;2022-08-19T00:27:47;5.97;;;4.10;;
61956;SDS011;47916;45.544;10.166;2022-08-19T00:27:59;5.57;;;4.00;;
61956;SDS011;47916;45.544;10.166;2022-08-19T00:28:10;8.35;;;4.43;;
61956;SDS011;47916;45.544;10.166;2022-08-19T00:28:22;8.57;;;4.50;;
61956;SDS011;47916;45.544;10.166;2022-08-19T00:28:33;7.20;;;4.40;;
61956;SDS011;47916;45.544;10.166;2022-08-19T00:28:46;6.50;;;4.13;;
61956;SDS011;47916;45.544;10.166;2022-08-19T00:28:57;7.18;;;4.28;;
61956;SDS011;47916;45.544;10.166;2022-08-19T00:29:09;7.45;;;4.45;;
61956;SDS011;47916;45.544;10.166;2022-08-19T00:29:23;7.45;;;4.32;;
61956;SDS011;47916;45.544;10.166;2022-08-19T00:29:35;6.90;;;3.95;;
61956;SDS011;47916;45.544;10.166;2022-08-19T00:29:47;7.97;;;4.03;;
61956;SDS011;47916;45.544;10.166;2022-08-19T00:30:03;9.47;;;4.00;;
61956;SDS011;47916;45.544;10.166;2022-08-19T00:30:17;10.75;;;4.00;;
61956;SDS011;47916;45.544;10.166;2022-08-19T00:30:28;9.57;;;4.05;;
61956;SDS011;47916;45.544;10.166;2022-08-19T00:30:39;8.57;;;4.07;;
61956;SDS011;47916;45.544;10.166;2022-08-19T00:30:51;7.53;;;4.10;;
61956;SDS011;47916;45.544;10.166;2022-08-19T00:31:03;7.97;;;4.60;;
61956;SDS011;47916;45.544;10.166;2022-08-19T00:31:15;8.75;;;4.88;;
61956;SDS011;47916;45.544;10.166;2022-08-19T00:31:27;11.50;;;4.63;;
61956;SDS011;47916;45.544;10.166;2022-08-19T00:31:39;10.43;;;4.43;;
61956;SDS011;47916;45.544;10.166;2022-08-19T00:31:52;7.22;;;4.20;;
61956;SDS011;47916;45.544;10.166;2022-08-19T00:32:04;10.05;;;4.32;;
61956;SDS011;47916;45.544;10.166;2022-08-19T00:32:20;9.68;;;4.47;;
61956;SDS011;47916;45.544;10.166;2022-08-19T00:32:33;8.00;;;4.57;;
61956;SDS011;47916;45.544;10.166;2022-08-19T00:32:45;9.60;;;4.30;;
61956;SDS011;47916;45.544;10.166;2022-08-19T00:32:57;10.27;;;4.28;;
61956;SDS011;47916;45.544;10.166;2022-08-19T00:33:08;9.90;;;4.13;;
61956;SDS011;47916;45.544;10.166;2022-08-19T00:33:20;8.57;;;4.20;;
61956;SDS011;47916;45.544;10.166;2022-08-19T00:33:32;6.80;;;4.18;;
61956;SDS011;47916;45.544;10.166;2022-08-19T00:33:44;6.50;;;4.20;;
61956;SDS011;47916;45.544;10.166;2022-08-19T00:33:55;7.53;;;4.20;;
61956;SDS011;47916;45.544;10.166;2022-08-19T00:34:07;9.32;;;4.32;;
61956;SDS011;47916;45.544;10.166;2022-08-19T00:34:18;10.45;;;4.53;;
61956;SDS011;47916;45.544;10.166;2022-08-19T00:34:30;10.07;;;4.60;;
61956;SDS011;47916;45.544;10.166;2022-08-19T00:34:41;10.55;;;4.90;;
61956;SDS011;47916;45.544;10.166;2022-08-19T00:34:53;8.55;;;4.60;;
61956;SDS011;47916;45.544;10.166;2022-08-19T00:35:04;9.60;;;4.70;;
61956;SDS011;47916;45.544;10.166;2022-08-19T00:35:16;12.02;;;4.65;;
61956;SDS011;47916;45.544;10.166;2022-08-19T00:35:28;15.43;;;4.65;;
61956;SDS011;47916;45.544;10.166;2022-08-19T00:35:39;17.27;;;4.78;;
61956;SDS011;47916;45.544;10.166;2022-08-19T00:35:51;12.20;;;4.47;;
61956;SDS011;47916;45.544;10.166;2022-08-19T00:36:07;7.55;;;4.45;;
61956;SDS011;47916;45.544;10.166;2022-08-19T00:36:18;6.90;;;4.40;;
61956;SDS011;47916;45.544;10.166;2022-08-19T00:36:30;7.18;;;4.32;;
61956;SDS011;47916;45.544;10.166;2022-08-19T00:36:42;8.43;;;4.47;;
61956;SDS011;47916;45.544;10.166;2022-08-19T00:36:54;8.82;;;4.70;;
61956;SDS011;47916;45.544;10.166;2022-08-19T00:37:06;8.13;;;4.53;;
61956;SDS011;47916;45.544;10.166;2022-08-19T00:37:22;6.30;;;4.47;;
61956;SDS011;47916;45.544;10.166;2022-08-19T00:37:34;6.63;;;4.43;;
61956;SDS011;47916;45.544;10.166;2022-08-19T00:37:47;8.70;;;4.38;;
61956;SDS011;47916;45.544;10.166;2022-08-19T00:38:00;10.13;;;4.45;;
61956;SDS011;47916;45.544;10.166;2022-08-19T00:38:11;7.95;;;4.47;;
61956;SDS011;47916;45.544;10.166;2022-08-19T00:38:23;7.97;;;4.47;;
61956;SDS011;47916;45.544;10.166;2022-08-19T00:38:47;7.32;;;4.68;;
61956;SDS011;47916;45.544;10.166;2022-08-19T00:38:59;8.23;;;4.55;;
61956;SDS011;47916;45.544;10.166;2022-08-19T00:39:11;8.73;;;4.20;;
61956;SDS011;47916;45.544;10.166;2022-08-19T00:39:26;8.43;;;4.30;;
61956;SDS011;47916;45.544;10.166;2022-08-19T00:39:38;9.38;;;4.13;;
61956;SDS011;47916;45.544;10.166;2022-08-19T00:39:49;7.35;;;3.90;;
61956;SDS011;47916;45.544;10.166;2022-08-19T00:40:04;6.65;;;4.03;;
61956;SDS011;47916;45.544;10.166;2022-08-19T00:40:17;9.90;;;4.10;;
61956;SDS011;47916;45.544;10.166;2022-08-19T00:40:29;10.27;;;4.07;;
61956;SDS011;47916;45.544;10.166;2022-08-19T00:40:42;8.23;;;4.03;;
61956;SDS011;47916;45.544;10.166;2022-08-19T00:40:55;6.68;;;4.10;;
61956;SDS011;47916;45.544;10.166;2022-08-19T00:41:07;9.07;;;4.10;;
61956;SDS011;47916;45.544;10.166;2022-08-19T00:41:20;10.27;;;4.22;;
61956;SDS011;47916;45.544;10.166;2022-08-19T00:41:34;8.90;;;4.22;;
61956;SDS011;47916;45.544;10.166;2022-08-19T00:41:46;6.80;;;4.18;;
61956;SDS011;47916;45.544;10.166;2022-08-19T00:41:59;5.78;;;4.20;;
61956;SDS011;47916;45.544;10.166;2022-08-19T00:42:10;6.07;;;4.38;;
61956;SDS011;47916;45.544;10.166;2022-08-19T00:42:22;6.72;;;4.35;;
61956;SDS011;47916;45.544;10.166;2022-08-19T00:42:34;7.95;;;4.68;;
61956;SDS011;47916;45.544;10.166;2022-08-19T00:42:45;7.80;;;4.53;;
61956;SDS011;47916;45.544;10.166;2022-08-19T00:42:58;7.55;;;4.45;;
61956;SDS011;47916;45.544;10.166;2022-08-19T00:43:10;7.78;;;4.28;;
61956;SDS011;47916;45.544;10.166;2022-08-19T00:43:23;7.88;;;4.30;;
61956;SDS011;47916;45.544;10.166;2022-08-19T00:43:35;7.30;;;4.30;;
61956;SDS011;47916;45.544;10.166;2022-08-19T00:44:00;7.47;;;4.32;;
61956;SDS011;47916;45.544;10.166;2022-08-19T00:44:19;7.00;;;4.57;;
61956;SDS011;47916;45.544;10.166;2022-08-19T00:44:37;8.88;;;4.70;;
61956;SDS011;47916;45.544;10.166;2022-08-19T00:44:48;9.02;;;5.07;;
61956;SDS011;47916;45.544;10.166;2022-08-19T00:45:00;8.10;;;5.00;;
61956;SDS011;47916;45.544;10.166;2022-08-19T00:45:15;7.47;;;5.03;;
61956;SDS011;47916;45.544;10.166;2022-08-19T00:45:31;9.60;;;5.20;;
61956;SDS011;47916;45.544;10.166;2022-08-19T00:45:46;10.20;;;4.90;;
61956;SDS011;47916;45.544;10.166;2022-08-19T00:45:58;8.52;;;4.63;;
61956;SDS011;47916;45.544;10.166;2022-08-19T00:46:09;9.60;;;4.95;;
61956;SDS011;47916;45.544;10.166;2022-08-19T00:46:21;9.00;;;5.22;;
61956;SDS011;47916;45.544;10.166;2022-08-19T00:46:32;9.73;;;5.18;;
61956;SDS011;47916;45.544;10.166;2022-08-19T00:46:47;9.15;;;4.53;;
61956;SDS011;47916;45.544;10.166;2022-08-19T00:47:08;8.05;;;4.70;;
61956;SDS011;47916;45.544;10.166;2022-08-19T00:47:24;7.45;;;4.85;;
61956;SDS011;47916;45.544;10.166;2022-08-19T00:47:35;7.70;;;4.78;;
61956;SDS011;47916;45.544;10.166;2022-08-19T00:47:47;7.35;;;4.72;;
61956;SDS011;47916;45.544;10.166;2022-08-19T00:47:59;7.03;;;4.53;;
61956;SDS011;47916;45.544;10.166;2022-08-19T00:48:11;7.07;;;4.45;;
61956;SDS011;47916;45.544;10.166;2022-08-19T00:48:25;7.25;;;4.30;;
61956;SDS011;47916;45.544;10.166;2022-08-19T00:48:36;8.48;;;4.30;;
61956;SDS011;47916;45.544;10.166;2022-08-19T00:48:48;8.43;;;4.72;;
61956;SDS011;47916;45.544;10.166;2022-08-19T00:49:00;7.43;;;5.10;;
61956;SDS011;47916;45.544;10.166;2022-08-19T00:49:20;6.13;;;4.72;;
61956;SDS011;47916;45.544;10.166;2022-08-19T00:49:41;8.75;;;4.68;;
61956;SDS011;47916;45.544;10.166;2022-08-19T00:49:58;8.40;;;5.10;;
61956;SDS011;47916;45.544;10.166;2022-08-19T00:50:11;7.53;;;5.00;;
61956;SDS011;47916;45.544;10.166;2022-08-19T00:50:26;9.07;;;4.70;;
61956;SDS011;47916;45.544;10.166;2022-08-19T00:50:38;8.90;;;4.60;;
61956;SDS011;47916;45.544;10.166;2022-08-19T00:51:03;7.82;;;4.93;;
61956;SDS011;47916;45.544;10.166;2022-08-19T00:51:15;9.63;;;4.82;;
61956;SDS011;47916;45.544;10.166;2022-08-19T00:51:27;10.77;;;4.85;;
61956;SDS011;47916;45.544;10.166;2022-08-19T00:51:41;8.50;;;4.75;;
61956;SDS011;47916;45.544;10.166;2022-08-19T00:51:55;9.25;;;4.90;;
61956;SDS011;47916;45.544;10.166;2022-08-19T00:52:24;8.73;;;5.35;;
61956;SDS011;47916;45.544;10.166;2022-08-19T00:52:43;9.23;;;5.35;;
61956;SDS011;47916;45.544;10.166;2022-08-19T00:52:57;8.95;;;5.15;;
61956;SDS011;47916;45.544;10.166;2022-08-19T00:53:10;8.45;;;4.97;;
61956;SDS011;47916;45.544;10.166;2022-08-19T00:53:24;9.32;;;5.40;;
61956;SDS011;47916;45.544;10.166;2022-08-19T00:53:38;10.80;;;5.60;;
61956;SDS011;47916;45.544;10.166;2022-08-19T00:53:49;10.57;;;5.45;;
61956;SDS011;47916;45.544;10.166;2022-08-19T00:54:01;10.45;;;5.30;;
61956;SDS011;47916;45.544;10.166;2022-08-19T00:54:13;8.23;;;5.18;;
61956;SDS011;47916;45.544;10.166;2022-08-19T00:54:26;8.07;;;4.75;;
61956;SDS011;47916;45.544;10.166;2022-08-19T00:54:41;8.48;;;5.00;;
61956;SDS011;47916;45.544;10.166;2022-08-19T00:54:53;7.35;;;5.30;;
61956;SDS011;47916;45.544;10.166;2022-08-19T00:55:05;8.00;;;5.45;;
61956;SDS011;47916;45.544;10.166;2022-08-19T00:55:20;7.38;;;5.18;;
61956;SDS011;47916;45.544;10.166;2022-08-19T00:55:34;8.52;;;5.25;;
61956;SDS011;47916;45.544;10.166;2022-08-19T00:55:47;11.23;;;5.35;;
61956;SDS011;47916;45.544;10.166;2022-08-19T00:56:01;12.20;;;5.45;;
61956;SDS011;47916;45.544;10.166;2022-08-19T00:56:13;11.57;;;5.40;;
61956;SDS011;47916;45.544;10.166;2022-08-19T00:56:25;9.70;;;5.35;;
61956;SDS011;47916;45.544;10.166;2022-08-19T00:56:37;8.55;;;4.80;;
61956;SDS011;47916;45.544;10.166;2022-08-19T00:56:52;7.22;;;4.63;;
61956;SDS011;47916;45.544;10.166;2022-08-19T00:57:13;8.95;;;4.60;;
61956;SDS011;47916;45.544;10.166;2022-08-19T00:57:30;11.55;;;5.72;;
61956;SDS011;47916;45.544;10.166;2022-08-19T00:57:48;9.30;;;5.13;;
61956;SDS011;47916;45.544;10.166;2022-08-19T00:58:06;8.20;;;4.85;;
61956;SDS011;47916;45.544;10.166;2022-08-19T00:58:22;7.97;;;4.50;;
61956;SDS011;47916;45.544;10.166;2022-08-19T00:58:37;10.98;;;4.50;;
61956;SDS011;47916;45.544;10.166;2022-08-19T00:58:49;11.50;;;4.70;;
61956;SDS011;47916;45.544;10.166;2022-08-19T00:59:00;7.80;;;4.78;;
61956;SDS011;47916;45.544;10.166;2022-08-19T00:59:13;6.82;;;4.57;;
61956;SDS011;47916;45.544;10.166;2022-08-19T00:59:47;8.88;;;4.78;;
61956;SDS011;47916;45.544;10.166;2022-08-19T01:00:15;8.73;;;4.75;;
61956;SDS011;47916;45.544;10.166;2022-08-19T01:00:29;9.25;;;4.50;;
61956;SDS011;47916;45.544;10.166;2022-08-19T01:00:42;10.57;;;4.35;;
61956;SDS011;47916;45.544;10.166;2022-08-19T01:00:53;11.48;;;4.20;;
61956;SDS011;47916;45.544;10.166;2022-08-19T01:01:05;11.18;;;4.43;;
61956;SDS011;47916;45.544;10.166;2022-08-19T01:01:16;8.45;;;4.47;;
61956;SDS011;47916;45.544;10.166;2022-08-19T01:01:28;8.27;;;4.78;;
61956;SDS011;47916;45.544;10.166;2022-08-19T01:01:40;8.75;;;4.95;;
61956;SDS011;47916;45.544;10.166;2022-08-19T01:01:54;7.43;;;4.88;;
61956;SDS011;47916;45.544;10.166;2022-08-19T01:02:06;7.53;;;5.10;;
61956;SDS011;47916;45.544;10.166;2022-08-19T01:02:18;8.68;;;5.15;;
61956;SDS011;47916;45.544;10.166;2022-08-19T01:02:31;8.65;;;5.00;;
61956;SDS011;47916;45.544;10.166;2022-08-19T01:02:44;7.03;;;4.60;;
61956;SDS011;47916;45.544;10.166;2022-08-19T01:02:56;8.20;;;4.82;;
61956;SDS011;47916;45.544;10.166;2022-08-19T01:03:10;9.77;;;5.10;;
61956;SDS011;47916;45.544;10.166;2022-08-19T01:03:23;8.68;;;4.80;;
61956;SDS011;47916;45.544;10.166;2022-08-19T01:03:35;7.90;;;4.97;;
61956;SDS011;47916;45.544;10.166;2022-08-19T01:04:06;7.38;;;4.85;;
61956;SDS011;47916;45.544;10.166;2022-08-19T01:04:18;7.57;;;4.80;;
61956;SDS011;47916;45.544;10.166;2022-08-19T01:04:29;7.90;;;4.88;;
61956;SDS011;47916;45.544;10.166;2022-08-19T01:04:41;7.95;;;5.40;;
61956;SDS011;47916;45.544;10.166;2022-08-19T01:04:52;7.88;;;5.32;;
61956;SDS011;47916;45.544;10.166;2022-08-19T01:05:05;8.55;;;5.03;;
61956;SDS011;47916;45.544;10.166;2022-08-19T01:05:22;10.23;;;4.63;;
61956;SDS011;47916;45.544;10.166;2022-08-19T01:05:37;10.50;;;5.55;;
61956;SDS011;47916;45.544;10.166;2022-08-19T01:05:53;7.75;;;5.30;;
61956;SDS011;47916;45.544;10.166;2022-08-19T01:06:06;7.88;;;4.75;;
61956;SDS011;47916;45.544;10.166;2022-08-19T01:06:18;13.23;;;5.05;;
61956;SDS011;47916;45.544;10.166;2022-08-19T01:06:31;13.77;;;5.38;;
61956;SDS011;47916;45.544;10.166;2022-08-19T01:06:43;10.32;;;5.25;;
61956;SDS011;47916;45.544;10.166;2022-08-19T01:06:55;9.80;;;5.50;;
61956;SDS011;47916;45.544;10.166;2022-08-19T01:07:08;8.60;;;5.05;;
61956;SDS011;47916;45.544;10.166;2022-08-19T01:07:25;8.10;;;4.78;;
61956;SDS011;47916;45.544;10.166;2022-08-19T01:07:37;9.60;;;4.95;;
61956;SDS011;47916;45.544;10.166;2022-08-19T01:07:53;9.73;;;4.90;;
61956;SDS011;47916;45.544;10.166;2022-08-19T01:08:07;11.20;;;5.03;;
61956;SDS011;47916;45.544;10.166;2022-08-19T01:08:19;9.65;;;4.90;;
61956;SDS011;47916;45.544;10.166;2022-08-19T01:08:31;9.88;;;4.88;;
61956;SDS011;47916;45.544;10.166;2022-08-19T01:08:43;8.45;;;5.03;;
61956;SDS011;47916;45.544;10.166;2022-08-19T01:08:54;13.48;;;5.30;;
61956;SDS011;47916;45.544;10.166;2022-08-19T01:09:06;15.35;;;5.43;;
61956;SDS011;47916;45.544;10.166;2022-08-19T01:09:18;14.13;;;4.90;;
61956;SDS011;47916;45.544;10.166;2022-08-19T01:09:29;9.38;;;4.78;;
61956;SDS011;47916;45.544;10.166;2022-08-19T01:09:42;7.30;;;4.57;;
61956;SDS011;47916;45.544;10.166;2022-08-19T01:09:53;8.65;;;4.80;;
61956;SDS011;47916;45.544;10.166;2022-08-19T01:10:05;9.00;;;5.13;;
61956;SDS011;47916;45.544;10.166;2022-08-19T01:10:20;9.63;;;5.90;;
61956;SDS011;47916;45.544;10.166;2022-08-19T01:10:48;10.27;;;5.63;;
61956;SDS011;47916;45.544;10.166;2022-08-19T01:11:02;8.52;;;4.80;;
61956;SDS011;47916;45.544;10.166;2022-08-19T01:11:14;8.13;;;5.18;;
61956;SDS011;47916;45.544;10.166;2022-08-19T01:11:26;10.50;;;5.28;;
61956;SDS011;47916;45.544;10.166;2022-08-19T01:11:39;10.88;;;4.60;;
61956;SDS011;47916;45.544;10.166;2022-08-19T01:11:54;7.78;;;4.10;;
61956;SDS011;47916;45.544;10.166;2022-08-19T01:12:06;5.55;;;4.20;;
61956;SDS011;47916;45.544;10.166;2022-08-19T01:12:19;6.50;;;4.43;;
61956;SDS011;47916;45.544;10.166;2022-08-19T01:12:31;7.20;;;4.63;;
61956;SDS011;47916;45.544;10.166;2022-08-19T01:12:44;7.57;;;4.63;;
61956;SDS011;47916;45.544;10.166;2022-08-19T01:13:00;8.93;;;4.43;;
61956;SDS011;47916;45.544;10.166;2022-08-19T01:13:16;8.40;;;4.43;;
61956;SDS011;47916;45.544;10.166;2022-08-19T01:13:30;9.02;;;4.35;;
61956;SDS011;47916;45.544;10.166;2022-08-19T01:14:00;7.35;;;4.40;;
61956;SDS011;47916;45.544;10.166;2022-08-19T01:14:12;8.57;;;4.30;;
61956;SDS011;47916;45.544;10.166;2022-08-19T01:14:24;10.77;;;4.18;;
61956;SDS011;47916;45.544;10.166;2022-08-19T01:14:36;10.70;;;3.88;;
61956;SDS011;47916;45.544;10.166;2022-08-19T01:14:50;9.00;;;3.92;;
61956;SDS011;47916;45.544;10.166;2022-08-19T01:15:04;6.65;;;3.75;;
61956;SDS011;47916;45.544;10.166;2022-08-19T01:15:19;5.68;;;3.83;;
61956;SDS011;47916;45.544;10.166;2022-08-19T01:15:45;7.15;;;3.90;;
61956;SDS011;47916;45.544;10.166;2022-08-19T01:16:05;7.47;;;3.60;;
61956;SDS011;47916;45.544;10.166;2022-08-19T01:16:19;5.70;;;3.65;;
61956;SDS011;47916;45.544;10.166;2022-08-19T01:16:33;7.57;;;4.00;;
61956;SDS011;47916;45.544;10.166;2022-08-19T01:16:46;8.30;;;4.18;;
61956;SDS011;47916;45.544;10.166;2022-08-19T01:16:58;8.02;;;4.05;;
61956;SDS011;47916;45.544;10.166;2022-08-19T01:17:10;6.80;;;3.60;;
61956;SDS011;47916;45.544;10.166;2022-08-19T01:17:22;9.05;;;4.22;;
61956;SDS011;47916;45.544;10.166;2022-08-19T01:17:34;8.68;;;3.90;;
61956;SDS011;47916;45.544;10.166;2022-08-19T01:17:48;5.93;;;3.40;;
61956;SDS011;47916;45.544;10.166;2022-08-19T01:18:03;5.55;;;3.40;;
61956;SDS011;47916;45.544;10.166;2022-08-19T01:18:18;7.55;;;3.63;;
61956;SDS011;47916;45.544;10.166;2022-08-19T01:18:32;7.65;;;3.53;;
61956;SDS011;47916;45.544;10.166;2022-08-19T01:18:46;6.35;;;3.65;;
61956;SDS011;47916;45.544;10.166;2022-08-19T01:18:59;5.20;;;3.53;;